Time;durP1;ratioP1;P1;durP2;ratioP2;P2;SDS_P1;SDS_P2;PMS_P1;PMS_P2;Temp;Humidity;BMP_temperature;BMP_pressure;BME280_temperature;BME280_humidity;BME280_pressure;Samples;Min_cycle;Max_cycle;Signal;HPM_P1;HPM_P2
2022/12/03 00:00:18;;;;;;;0.00;0.00;;;;;;;0.91;100.00;98710.50;4946676;28;20296;-58
2022/12/03 00:02:44;;;;;;;0.00;0.00;;;;;;;0.90;100.00;98713.97;4943109;28;20237;-58
2022/12/03 00:05:11;;;;;;;0.00;0.00;;;;;;;0.93;100.00;98711.22;4946833;28;20237;-58
2022/12/03 00:07:39;;;;;;;0.00;0.00;;;;;;;0.86;100.00;98711.59;4943936;28;20592;-58
2022/12/03 00:10:08;;;;;;;0.00;0.00;;;;;;;0.90;100.00;98719.97;4945399;28;20230;-59
2022/12/03 00:12:35;;;;;;;0.00;0.00;;;;;;;0.76;100.00;98712.19;4943407;28;20311;-58
2022/12/03 00:15:01;;;;;;;0.00;0.00;;;;;;;0.72;100.00;98709.81;4945290;28;20238;-57
2022/12/03 00:17:28;;;;;;;0.03;0.03;;;;;;;0.70;100.00;98709.06;4944010;28;20614;-58
2022/12/03 00:19:54;;;;;;;0.00;0.00;;;;;;;0.72;100.00;98714.09;4959417;28;20238;-58
2022/12/03 00:22:21;;;;;;;0.00;0.00;;;;;;;0.71;100.00;98713.28;4946796;28;20242;-58
2022/12/03 00:24:48;;;;;;;0.00;0.00;;;;;;;0.69;100.00;98719.41;4943553;28;20289;-59
2022/12/03 00:27:15;;;;;;;0.00;0.00;;;;;;;0.71;100.00;98718.44;4946934;28;20238;-58
2022/12/03 00:29:42;;;;;;;0.00;0.00;;;;;;;0.68;100.00;98712.63;4939456;28;20233;-59
2022/12/03 00:32:09;;;;;;;0.00;0.00;;;;;;;0.71;100.00;98709.88;4945574;28;20399;-58
2022/12/03 00:34:38;;;;;;;0.00;0.00;;;;;;;0.66;100.00;98707.56;4941221;28;20217;-59
2022/12/03 00:37:04;;;;;;;0.10;0.10;;;;;;;0.69;100.00;98704.00;4944991;28;20239;-59
2022/12/03 00:39:31;;;;;;;0.00;0.00;;;;;;;0.59;100.00;98707.06;4943455;28;20309;-59
2022/12/03 00:41:58;;;;;;;0.00;0.00;;;;;;;0.48;100.00;98716.31;4945364;28;20899;-61
2022/12/03 00:44:26;;;;;;;0.00;0.00;;;;;;;0.40;100.00;98702.13;4944759;28;20253;-60
2022/12/03 00:46:53;;;;;;;0.03;0.03;;;;;;;0.36;100.00;98710.09;4940298;28;20241;-59
2022/12/03 00:49:19;;;;;;;0.00;0.00;;;;;;;0.28;100.00;98707.94;4943282;28;20281;-59
2022/12/03 00:51:46;;;;;;;0.00;0.00;;;;;;;0.33;100.00;98708.53;4939852;28;20242;-58
2022/12/03 00:54:12;;;;;;;0.00;0.00;;;;;;;0.30;100.00;98711.25;4942888;28;20245;-59
2022/12/03 00:56:39;;;;;;;0.00;0.00;;;;;;;0.29;100.00;98714.72;4940913;28;20241;-59
2022/12/03 00:59:06;;;;;;;0.00;0.00;;;;;;;0.25;100.00;98713.25;4942270;28;20242;-60
2022/12/03 01:01:33;;;;;;;0.00;0.00;;;;;;;0.25;100.00;98708.09;4940935;28;20244;-58
2022/12/03 01:04:00;;;;;;;0.00;0.00;;;;;;;0.29;100.00;98714.72;4942415;28;20255;-60
2022/12/03 01:06:27;;;;;;;0.00;0.00;;;;;;;0.34;100.00;98717.88;4940913;28;20854;-59
2022/12/03 01:08:53;;;;;;;0.00;0.00;;;;;;;0.30;100.00;98711.25;4942500;28;20241;-59
2022/12/03 01:11:40;;;;;;;0.00;0.00;;;;;;;0.26;100.00;98715.75;4943275;28;20702;-59
2022/12/03 01:14:11;;;;;;;0.00;0.00;;;;;;;0.33;100.00;98716.22;4939947;28;20606;-59
2022/12/03 01:16:40;;;;;;;0.00;0.00;;;;;;;0.33;100.00;98713.66;4940656;28;20289;-59
2022/12/03 01:19:09;;;;;;;0.00;0.00;;;;;;;0.28;100.00;98724.19;4955048;28;20222;-59
2022/12/03 01:21:36;;;;;;;0.00;0.00;;;;;;;0.26;100.00;98722.59;4938856;28;20238;-59
2022/12/03 01:24:04;;;;;;;0.00;0.00;;;;;;;0.35;100.00;98724.69;4940056;28;20724;-59
2022/12/03 01:26:30;;;;;;;0.00;0.00;;;;;;;0.32;100.00;98724.03;4940479;28;20238;-59
2022/12/03 01:28:57;;;;;;;0.00;0.00;;;;;;;0.37;100.00;98727.19;4941928;28;21014;-59
2022/12/03 01:34:09;;;;;;;0.00;0.00;;;;;;;0.27;100.00;98722.53;4954289;28;20272;-58
2022/12/03 01:36:36;;;;;;;0.00;0.00;;;;;;;0.33;100.00;98723.94;4940169;28;20293;-62
2022/12/03 01:39:03;;;;;;;0.00;0.00;;;;;;;0.37;100.00;98717.72;4941139;28;20234;-58
2022/12/03 01:41:31;;;;;;;0.00;0.00;;;;;;;0.33;100.00;98717.97;4939968;28;20297;-59
2022/12/03 01:43:59;;;;;;;0.00;0.00;;;;;;;0.33;100.00;98717.97;4941169;28;20246;-58
2022/12/03 01:46:34;;;;;;;0.00;0.00;;;;;;;0.34;100.00;98725.59;4942286;28;20230;-59
2022/12/03 01:49:01;;;;;;;0.00;0.00;;;;;;;0.40;100.00;98730.38;4939522;28;20331;-59
2022/12/03 01:51:29;;;;;;;0.00;0.00;;;;;;;0.38;100.00;98728.84;4939327;28;20238;-59
2022/12/03 01:53:56;;;;;;;0.00;0.00;;;;;;;0.38;100.00;98732.22;4941227;28;20226;-59
2022/12/03 01:56:23;;;;;;;0.00;0.00;;;;;;;0.37;100.00;98727.19;4941735;28;20778;-59
2022/12/03 01:58:49;;;;;;;0.00;0.00;;;;;;;0.39;100.00;98726.16;4939207;28;20246;-59
2022/12/03 02:01:18;;;;;;;0.00;0.00;;;;;;;0.32;100.00;98724.84;4942233;28;20290;-59
2022/12/03 02:03:45;;;;;;;0.00;0.00;;;;;;;0.29;100.00;98725.00;4938736;28;20599;-59
2022/12/03 02:06:16;;;;;;;0.00;0.00;;;;;;;0.26;100.00;98720.88;4941853;28;20746;-59
2022/12/03 02:08:45;;;;;;;0.00;0.00;;;;;;;0.24;100.00;98722.69;4940020;28;20313;-58
2022/12/03 02:11:20;;;;;;;0.00;0.00;;;;;;;0.29;100.00;98720.72;4941348;28;20257;-59
2022/12/03 02:13:51;;;;;;;0.00;0.00;;;;;;;0.27;100.00;98717.41;4938110;28;20300;-59
2022/12/03 02:16:17;;;;;;;0.10;0.10;;;;;;;0.29;100.00;98712.16;4941451;28;20234;-59
2022/12/03 02:18:44;;;;;;;0.00;0.00;;;;;;;0.31;100.00;98712.09;4938022;28;20222;-59
2022/12/03 02:21:17;;;;;;;0.00;0.00;;;;;;;0.19;100.00;98716.13;4939473;28;20622;-59
2022/12/03 02:23:57;;;;;;;0.00;0.00;;;;;;;0.09;100.00;98711.50;4938103;28;20233;-59
2022/12/03 02:26:27;;;;;;;0.00;0.00;;;;;;;-0.12;100.00;98710.09;4941491;28;20280;-58
2022/12/03 02:28:53;;;;;;;0.00;0.00;;;;;;;-0.22;100.00;98712.31;4938332;28;20238;-59
2022/12/03 02:31:20;;;;;;;0.03;0.03;;;;;;;-0.28;100.00;98710.91;4941294;28;20298;-59
2022/12/03 02:33:49;;;;;;;0.00;0.00;;;;;;;-0.33;100.00;98718.00;4937926;28;20733;-59
2022/12/03 02:36:16;;;;;;;0.00;0.00;;;;;;;-0.35;100.00;98724.94;4941254;28;20352;-59
2022/12/03 02:38:45;;;;;;;0.00;0.00;;;;;;;-0.35;100.00;98710.38;4939247;28;20234;-59
2022/12/03 02:42:33;;;;;;;0.00;0.00;;;;;;;-0.39;100.00;98719.13;4939665;28;20304;-58
2022/12/03 02:44:05;;;;;;;0.00;0.00;;;;;;;-0.35;100.00;98712.94;4938014;28;22823;-58
2022/12/03 02:46:32;;;;;;;0.00;0.00;;;;;;;-0.29;100.00;98719.50;4938633;28;20290;-60
2022/12/03 02:49:00;;;;;;;0.03;0.03;;;;;;;-0.40;100.00;98714.91;4940463;28;20666;-58
2022/12/03 02:51:26;;;;;;;0.00;0.00;;;;;;;-0.39;100.00;98708.88;4941212;28;20228;-63
2022/12/03 02:53:55;;;;;;;0.00;0.00;;;;;;;-0.31;100.00;98708.50;4954435;28;20241;-59
2022/12/03 02:56:26;;;;;;;0.00;0.00;;;;;;;-0.36;100.00;98713.84;4945509;28;20236;-58
2022/12/03 02:58:57;;;;;;;0.00;0.00;;;;;;;-0.40;100.00;98704.66;4942902;28;20234;-58
2022/12/03 03:01:28;;;;;;;0.00;0.00;;;;;;;-0.46;100.00;98702.41;4947185;28;20244;-58
2022/12/03 03:03:55;;;;;;;0.00;0.00;;;;;;;-0.47;100.00;98704.16;4944326;28;20314;-58
2022/12/03 03:06:22;;;;;;;0.00;0.00;;;;;;;-0.53;100.00;98701.91;4945334;28;20225;-59
2022/12/03 03:08:49;;;;;;;0.00;0.00;;;;;;;-0.59;100.00;98691.97;4942246;28;20237;-59
2022/12/03 03:11:15;;;;;;;0.00;0.00;;;;;;;-0.72;100.00;98691.78;4944763;28;20776;-59
2022/12/03 03:13:43;;;;;;;0.00;0.00;;;;;;;-0.82;100.00;98693.94;4943568;28;20966;-59
2022/12/03 03:16:10;;;;;;;0.00;0.00;;;;;;;-0.88;100.00;98691.69;4944872;28;20614;-59
2022/12/03 03:18:38;;;;;;;0.00;0.00;;;;;;;-0.95;100.00;98687.78;4944352;28;20233;-59
2022/12/03 03:21:06;;;;;;;0.00;0.00;;;;;;;-1.02;100.00;98688.97;4943618;28;20248;-58
2022/12/03 03:23:32;;;;;;;0.10;0.10;;;;;;;-1.13;100.00;98686.97;4944020;28;20234;-59
2022/12/03 03:26:02;;;;;;;0.00;0.00;;;;;;;-1.19;100.00;98690.66;4945226;28;20709;-59
2022/12/03 03:28:30;;;;;;;0.00;0.00;;;;;;;-1.24;100.00;98690.06;4944435;28;20241;-59
2022/12/03 03:30:58;;;;;;;0.00;0.00;;;;;;;-1.25;100.00;98683.28;4945919;28;20234;-59
2022/12/03 03:33:25;;;;;;;0.00;0.00;;;;;;;-1.27;100.00;98688.47;4946432;28;20229;-60
2022/12/03 03:35:53;;;;;;;0.00;0.00;;;;;;;-1.28;100.00;98688.53;4943026;28;20701;-59
2022/12/03 03:38:22;;;;;;;0.00;0.00;;;;;;;-1.26;100.00;98684.19;4946434;28;20216;-60
2022/12/03 03:40:50;;;;;;;0.00;0.00;;;;;;;-1.25;100.00;98691.78;4943229;28;20812;-58
2022/12/03 03:43:17;;;;;;;0.00;0.00;;;;;;;-1.37;100.00;98685.53;4946169;28;20236;-59
2022/12/03 03:45:44;;;;;;;0.00;0.00;;;;;;;-1.42;100.00;98684.06;4943772;28;20641;-60
2022/12/03 03:48:12;;;;;;;0.00;0.00;;;;;;;-1.45;100.00;98687.63;4946150;28;20236;-59
2022/12/03 03:50:39;;;;;;;0.00;0.00;;;;;;;-1.48;100.00;98693.69;4943785;28;20229;-59
2022/12/03 03:53:08;;;;;;;0.00;0.00;;;;;;;-1.45;100.00;98685.06;4945585;28;20637;-59
2022/12/03 03:55:34;;;;;;;0.00;0.00;;;;;;;-1.43;100.00;98682.41;4943985;28;20239;-59
2022/12/03 03:58:01;;;;;;;0.00;0.00;;;;;;;-1.46;100.00;98692.81;4945955;28;20235;-59
2022/12/03 04:00:28;;;;;;;0.00;0.00;;;;;;;-1.44;100.00;98684.16;4943269;28;20239;-59
2022/12/03 04:02:57;;;;;;;0.00;0.00;;;;;;;-1.43;100.00;98684.97;4945078;28;20244;-59
2022/12/03 04:05:25;;;;;;;0.00;0.00;;;;;;;-1.44;100.00;98684.16;4945366;28;20290;-59
2022/12/03 04:07:51;;;;;;;0.00;0.00;;;;;;;-1.42;100.00;98684.91;4943116;28;20813;-59
2022/12/03 04:13:04;;;;;;;0.00;0.00;;;;;;;-1.49;100.00;98686.94;4943546;28;20242;-59
2022/12/03 04:15:31;;;;;;;0.00;0.00;;;;;;;-1.48;100.00;98692.88;4943299;28;20288;-59
2022/12/03 04:20:42;;;;;;;0.00;0.00;;;;;;;-1.48;100.00;98690.34;4945236;28;20258;-59
2022/12/03 04:23:08;;;;;;;0.00;0.00;;;;;;;-1.50;100.00;98681.88;4949079;28;20263;-59
2022/12/03 04:35:41;;;;;;;0.00;0.00;;;;;;;-1.25;100.00;98686.66;5147813;23;20301;-58
2022/12/03 04:36:36;;;;;;;0.00;0.00;;;;;;;-1.19;100.00;98677.84;4932403;28;20229;-59
2022/12/03 04:39:04;;;;;;;0.00;0.00;;;;;;;-1.18;100.00;98689.75;4930841;28;20233;-59
2022/12/03 04:41:32;;;;;;;0.00;0.00;;;;;;;-1.14;100.00;98678.47;4928170;28;20235;-60
2022/12/03 04:46:43;;;;;;;0.00;0.00;;;;;;;-1.19;100.00;98682.97;4928481;28;20247;-59
2022/12/03 04:49:09;;;;;;;0.00;0.00;;;;;;;-1.17;100.00;98685.44;4929867;28;20232;-60
2022/12/03 04:51:36;;;;;;;0.00;0.00;;;;;;;-1.16;100.00;98679.44;4931443;28;20233;-60
2022/12/03 04:54:02;;;;;;;0.00;0.00;;;;;;;-1.13;100.00;98677.56;4930288;28;20236;-58
2022/12/03 04:56:29;;;;;;;0.00;0.00;;;;;;;-1.22;100.00;98676.25;4929033;28;20238;-59
2022/12/03 04:58:57;;;;;;;0.00;0.00;;;;;;;-1.22;100.00;98665.19;4932366;28;20717;-59
2022/12/03 05:01:25;;;;;;;0.00;0.00;;;;;;;-1.33;100.00;98665.72;4928401;28;20235;-59
2022/12/03 05:03:51;;;;;;;0.00;0.00;;;;;;;-1.41;100.00;98652.44;4928120;28;20251;-60
2022/12/03 05:06:18;;;;;;;0.00;0.00;;;;;;;-1.48;100.00;98654.50;4935256;28;20236;-59
2022/12/03 05:08:45;;;;;;;0.00;0.00;;;;;;;-1.56;100.00;98654.03;4929562;28;20708;-59
2022/12/03 05:11:11;;;;;;;0.07;0.07;;;;;;;-1.56;100.00;98664.25;4928822;28;20240;-60
2022/12/03 05:13:38;;;;;;;0.00;0.00;;;;;;;-1.62;100.00;98657.72;4928058;28;20757;-59
2022/12/03 05:16:06;;;;;;;0.00;0.00;;;;;;;-1.77;100.00;98656.69;4929464;28;20641;-58
2022/12/03 05:18:33;;;;;;;0.00;0.00;;;;;;;-1.86;100.00;98652.84;4927406;28;20221;-60
2022/12/03 05:20:59;;;;;;;0.00;0.00;;;;;;;-1.95;100.00;98651.53;4929293;28;20274;-59
2022/12/03 05:23:26;;;;;;;0.00;0.00;;;;;;;-2.00;100.00;98650.91;4927639;28;20224;-59
2022/12/03 05:25:56;;;;;;;0.10;0.10;;;;;;;-2.01;100.00;98656.13;4931754;28;20300;-59
2022/12/03 05:28:23;;;;;;;0.00;0.00;;;;;;;-2.09;100.00;98653.88;4935194;28;20262;-59
2022/12/03 05:30:49;;;;;;;0.00;0.00;;;;;;;-2.16;100.00;98655.09;4925969;28;20320;-59
2022/12/03 05:33:17;;;;;;;0.00;0.00;;;;;;;-2.12;100.00;98649.75;4931284;28;20732;-59
2022/12/03 05:35:44;;;;;;;0.00;0.00;;;;;;;-2.13;100.00;98648.09;4930879;28;20237;-59
2022/12/03 05:38:10;;;;;;;0.00;0.00;;;;;;;-2.14;100.00;98641.31;4930804;28;20228;-59
2022/12/03 05:40:37;;;;;;;0.00;0.00;;;;;;;-2.16;100.00;98635.44;4927726;28;20243;-59
2022/12/03 05:43:05;;;;;;;0.00;0.00;;;;;;;-2.20;100.00;98633.13;4932790;28;21346;-60
2022/12/03 05:45:34;;;;;;;0.10;0.10;;;;;;;-2.18;100.00;98629.56;4930782;28;20311;-58
2022/12/03 05:48:01;;;;;;;0.00;0.00;;;;;;;-2.08;100.00;98622.28;4934108;28;20238;-60
2022/12/03 05:50:31;;;;;;;0.00;0.00;;;;;;;-2.12;100.00;98623.38;4927377;28;20236;-59
2022/12/03 05:52:59;;;;;;;0.00;0.00;;;;;;;-2.20;100.00;98622.88;4931735;28;20256;-59
2022/12/03 05:55:27;;;;;;;0.00;0.00;;;;;;;-2.15;100.00;98621.75;4928156;28;20234;-59
2022/12/03 05:57:53;;;;;;;0.00;0.00;;;;;;;-2.19;100.00;98622.81;4925431;28;20323;-58
2022/12/03 06:00:21;;;;;;;0.00;0.00;;;;;;;-2.24;100.00;98627.31;4927782;28;20240;-60
2022/12/03 06:02:48;;;;;;;0.00;0.00;;;;;;;-2.22;100.00;98628.06;4924636;28;20328;-58
2022/12/03 06:05:15;;;;;;;0.00;0.00;;;;;;;-2.19;100.00;98635.59;4928354;28;20741;-59
2022/12/03 06:07:43;;;;;;;0.00;0.00;;;;;;;-2.12;100.00;98634.41;4926409;28;20314;-59
2022/12/03 06:10:16;;;;;;;0.00;0.00;;;;;;;-2.19;100.00;98629.66;4928901;28;20239;-59
2022/12/03 06:12:43;;;;;;;0.00;0.00;;;;;;;-2.20;100.00;98639.03;4925065;28;20236;-60
2022/12/03 06:15:11;;;;;;;0.00;0.00;;;;;;;-2.25;100.00;98633.31;4940063;28;20253;-59
2022/12/03 06:17:38;;;;;;;0.00;0.00;;;;;;;-2.13;100.00;98635.31;4926017;28;20224;-60
2022/12/03 06:20:05;;;;;;;0.00;0.00;;;;;;;-2.03;100.00;98630.59;4931380;28;20246;-61
2022/12/03 06:22:35;;;;;;;0.00;0.00;;;;;;;-2.01;100.00;98641.59;4931230;28;20232;-60
2022/12/03 06:25:03;;;;;;;0.00;0.00;;;;;;;-1.93;100.00;98641.25;4934012;28;20244;-60
2022/12/03 06:27:29;;;;;;;0.00;0.00;;;;;;;-1.84;100.00;98639.97;4931087;28;20228;-60
2022/12/03 06:29:56;;;;;;;0.00;0.00;;;;;;;-1.78;100.00;98644.81;4937161;28;20233;-59
2022/12/03 06:32:23;;;;;;;0.00;0.00;;;;;;;-1.76;100.00;98644.75;4927757;28;20271;-60
2022/12/03 06:34:49;;;;;;;0.00;0.00;;;;;;;-1.66;100.00;98649.34;4924057;28;20596;-59
2022/12/03 06:37:16;;;;;;;0.00;0.00;;;;;;;-1.63;100.00;98648.38;4932723;28;20640;-59
2022/12/03 06:39:42;;;;;;;0.00;0.00;;;;;;;-1.55;100.00;98648.81;4930743;28;20377;-59
2022/12/03 06:42:10;;;;;;;0.00;0.00;;;;;;;-1.50;100.00;98656.28;4930228;28;20239;-61
2022/12/03 06:44:39;;;;;;;0.00;0.00;;;;;;;-1.45;100.00;98653.50;4926182;28;20292;-59
2022/12/03 06:47:05;;;;;;;0.00;0.00;;;;;;;-1.38;100.00;98653.16;4923248;28;20238;-59
2022/12/03 06:49:32;;;;;;;0.00;0.00;;;;;;;-1.33;100.00;98665.72;4921938;28;20712;-59
2022/12/03 06:51:58;;;;;;;0.00;0.00;;;;;;;-1.27;100.00;98674.84;4928407;28;20710;-59
2022/12/03 06:54:25;;;;;;;0.00;0.00;;;;;;;-1.21;100.00;98677.91;4932367;28;20615;-59
2022/12/03 06:56:52;;;;;;;0.00;0.00;;;;;;;-1.19;100.00;98678.66;4929947;28;20937;-59
2022/12/03 06:59:19;;;;;;;0.00;0.00;;;;;;;-1.12;100.00;98686.91;4935331;28;20234;-59
2022/12/03 07:01:46;;;;;;;0.00;0.00;;;;;;;-1.08;100.00;98680.72;4933045;28;20252;-60
2022/12/03 07:04:13;;;;;;;0.00;0.00;;;;;;;-1.05;100.00;98685.66;4928448;28;20236;-59
2022/12/03 07:06:39;;;;;;;0.00;0.00;;;;;;;-1.05;100.00;98685.66;4927203;28;20241;-59
2022/12/03 07:09:06;;;;;;;0.00;0.00;;;;;;;-1.06;100.00;98688.31;4924902;28;20694;-60
2022/12/03 07:11:38;;;;;;;0.00;0.00;;;;;;;-1.06;100.00;98681.44;4925383;28;20602;-61
2022/12/03 07:14:06;;;;;;;0.00;0.00;;;;;;;-1.09;100.00;98686.75;4926273;28;20816;-60
2022/12/03 07:16:35;;;;;;;0.00;0.00;;;;;;;-1.11;100.00;98693.69;4925307;28;20263;-59
2022/12/03 07:19:03;;;;;;;0.00;0.00;;;;;;;-1.05;100.00;98705.34;4926239;28;20293;-60
2022/12/03 07:21:29;;;;;;;0.00;0.00;;;;;;;-1.00;100.00;98707.66;4929164;28;20237;-60
2022/12/03 07:23:56;;;;;;;0.00;0.00;;;;;;;-1.00;100.00;98716.19;4932831;28;20586;-61
2022/12/03 07:26:22;;;;;;;0.00;0.00;;;;;;;-0.97;100.00;98723.75;4927594;28;20719;-60
2022/12/03 07:28:49;;;;;;;0.00;0.00;;;;;;;-1.00;100.00;98717.91;4926509;28;20635;-60
2022/12/03 07:31:16;;;;;;;0.00;0.00;;;;;;;-1.11;100.00;98716.75;4931102;28;20768;-60
2022/12/03 07:33:44;;;;;;;0.00;0.00;;;;;;;-1.04;100.00;98724.94;4922792;28;20641;-60
2022/12/03 07:36:10;;;;;;;0.00;0.00;;;;;;;-1.03;100.00;98726.59;4931214;28;20227;-59
2022/12/03 07:38:37;;;;;;;0.00;0.00;;;;;;;-1.10;100.00;98718.41;4925133;28;20242;-60
2022/12/03 07:41:04;;;;;;;0.00;0.00;;;;;;;-1.09;100.00;98714.09;4921265;28;20233;-59
2022/12/03 07:43:30;;;;;;;0.00;0.00;;;;;;;-1.06;100.00;98711.38;4926088;28;20226;-58
2022/12/03 07:45:57;;;;;;;0.00;0.00;;;;;;;-1.11;100.00;98700.53;4925999;28;20259;-60
2022/12/03 07:48:23;;;;;;;0.00;0.00;;;;;;;-1.06;100.00;98691.69;4926833;28;20236;-59
2022/12/03 07:50:51;;;;;;;0.00;0.00;;;;;;;-1.07;100.00;98687.50;4926459;28;20706;-59
2022/12/03 07:53:18;;;;;;;0.00;0.00;;;;;;;-0.97;100.00;98687.03;4934861;28;20231;-60
2022/12/03 07:55:45;;;;;;;0.00;0.00;;;;;;;-0.90;100.00;98678.13;4921084;28;20288;-60
2022/12/03 07:58:12;;;;;;;0.00;0.00;;;;;;;-0.90;100.00;98678.13;4930183;28;20311;-60
2022/12/03 08:00:38;;;;;;;0.00;0.00;;;;;;;-0.83;100.00;98671.78;4927134;28;20245;-61
2022/12/03 08:03:05;;;;;;;0.00;0.00;;;;;;;-0.85;100.00;98665.91;4931289;28;20252;-61
2022/12/03 08:05:31;;;;;;;0.00;0.00;;;;;;;-0.87;100.00;98665.16;4932718;28;20241;-60
2022/12/03 08:08:00;;;;;;;0.00;0.00;;;;;;;-1.02;100.00;98656.53;4936704;28;20598;-60
2022/12/03 08:10:26;;;;;;;0.00;0.00;;;;;;;-1.08;100.00;98655.09;4933104;28;20244;-60
2022/12/03 08:12:53;;;;;;;0.00;0.00;;;;;;;-1.17;100.00;98657.28;4932353;28;20257;-60
2022/12/03 08:15:23;;;;;;;0.00;0.00;;;;;;;-1.22;100.00;98649.84;4935080;28;20232;-62
2022/12/03 08:17:55;;;;;;;0.00;0.00;;;;;;;-1.22;100.00;98657.50;4933312;28;20284;-60
2022/12/03 08:20:23;;;;;;;0.00;0.00;;;;;;;-1.24;100.00;98649.91;4931911;28;20793;-61
2022/12/03 08:22:52;;;;;;;0.00;0.00;;;;;;;-1.24;100.00;98654.19;4926985;28;20244;-60
2022/12/03 08:25:23;;;;;;;0.00;0.00;;;;;;;-1.21;100.00;98664.28;4931911;28;20235;-60
2022/12/03 08:27:51;;;;;;;0.00;0.00;;;;;;;-1.38;100.00;98663.38;4927582;28;20723;-60
2022/12/03 08:30:18;;;;;;;0.00;0.00;;;;;;;-1.32;100.00;98669.94;4927785;28;20237;-60
2022/12/03 08:32:47;;;;;;;0.00;0.00;;;;;;;-1.22;100.00;98672.88;4929960;28;21290;-60
2022/12/03 08:35:20;;;;;;;0.00;0.00;;;;;;;-1.18;100.00;98676.97;4932097;28;20233;-60
2022/12/03 08:37:59;;;;;;;0.00;0.00;;;;;;;-1.06;100.00;98675.50;4924660;28;20250;-60
2022/12/03 08:40:35;;;;;;;0.00;0.00;;;;;;;-0.93;100.00;98668.88;4933480;28;20325;-61
2022/12/03 08:43:01;;;;;;;0.00;0.00;;;;;;;-0.73;100.00;98674.72;4929626;28;20279;-61
2022/12/03 08:45:38;;;;;;;0.00;0.00;;;;;;;-0.82;100.00;98672.63;4931724;28;20605;-60
2022/12/03 08:48:22;;;;;;;0.00;0.00;;;;;;;-0.71;100.00;98669.50;4923273;28;20244;-59
2022/12/03 08:50:49;;;;;;;0.00;0.00;;;;;;;-0.62;100.00;98666.47;4926771;28;20241;-60
2022/12/03 08:53:27;;;;;;;0.00;0.00;;;;;;;-0.59;100.00;98671.44;4935612;28;20230;-61
2022/12/03 08:55:57;;;;;;;0.00;0.00;;;;;;;-0.54;100.00;98666.91;4929499;28;20341;-60
2022/12/03 08:58:30;;;;;;;0.00;0.00;;;;;;;-0.55;100.00;98672.13;4930958;28;20710;-60
2022/12/03 09:01:00;;;;;;;0.00;0.00;;;;;;;-0.52;100.00;98669.38;4933832;28;20296;-61
2022/12/03 09:03:30;;;;;;;0.00;0.00;;;;;;;-0.64;100.00;98668.28;4924965;28;20241;-59
2022/12/03 09:05:57;;;;;;;0.00;0.00;;;;;;;-0.54;100.00;98672.03;4927476;28;20238;-61
2022/12/03 09:08:23;;;;;;;0.00;0.00;;;;;;;-0.75;100.00;98671.41;4927710;28;20234;-61
2022/12/03 09:10:50;;;;;;;0.00;0.00;;;;;;;-0.75;100.00;98661.16;4929787;28;20905;-61
2022/12/03 09:13:19;;;;;;;0.00;0.00;;;;;;;-0.75;100.00;98656.84;4934717;28;20240;-60
2022/12/03 09:15:45;;;;;;;0.00;0.00;;;;;;;-0.77;100.00;98663.78;4930874;28;20249;-60
2022/12/03 09:18:13;;;;;;;0.00;0.00;;;;;;;-0.64;100.00;98665.72;4928598;28;20712;-60
2022/12/03 09:20:39;;;;;;;0.00;0.00;;;;;;;-0.53;100.00;98662.63;4930346;28;20801;-61
2022/12/03 09:23:06;;;;;;;0.00;0.00;;;;;;;-0.46;100.00;98656.25;4928213;28;20287;-60
2022/12/03 09:25:33;;;;;;;0.00;0.00;;;;;;;-0.37;100.00;98660.09;4933905;28;20292;-61
2022/12/03 09:28:00;;;;;;;0.00;0.00;;;;;;;-0.35;100.00;98666.78;4932096;28;20733;-60
2022/12/03 09:30:28;;;;;;;0.00;0.00;;;;;;;-0.27;100.00;98675.81;4931566;28;20234;-60
2022/12/03 09:32:54;;;;;;;0.00;0.00;;;;;;;-0.14;100.00;98674.25;4930684;28;20303;-61
2022/12/03 09:35:21;;;;;;;0.00;0.00;;;;;;;0.09;100.00;98670.44;4929588;28;20233;-61
2022/12/03 09:37:48;;;;;;;0.00;0.00;;;;;;;0.16;100.00;98670.09;4924879;28;20691;-60
2022/12/03 09:40:15;;;;;;;0.00;0.00;;;;;;;0.12;100.00;98670.25;4929287;28;20608;-61
2022/12/03 09:42:41;;;;;;;0.00;0.00;;;;;;;0.16;100.00;98663.25;4924771;28;20304;-61
2022/12/03 09:45:11;;;;;;;0.00;0.00;;;;;;;0.19;100.00;98662.22;4927750;28;20223;-61
2022/12/03 09:47:40;;;;;;;0.00;0.00;;;;;;;0.38;100.00;98660.31;4918208;29;20238;-61
2022/12/03 09:50:11;;;;;;;0.00;0.00;;;;;;;0.51;100.00;98652.75;4929830;28;20235;-61
2022/12/03 09:52:37;;;;;;;0.00;0.00;;;;;;;0.61;100.00;98647.91;4930129;28;20242;-60
2022/12/03 09:55:12;;;;;;;0.00;0.00;;;;;;;0.70;100.00;98644.00;4929491;28;20232;-60
2022/12/03 09:57:39;;;;;;;0.03;0.03;;;;;;;0.91;100.00;98643.66;4932954;28;20810;-61
2022/12/03 10:00:14;;;;;;;0.00;0.00;;;;;;;0.91;100.00;98647.09;4937021;28;20232;-59
2022/12/03 10:02:42;;;;;;;0.00;0.00;;;;;;;0.97;100.00;98649.31;4929459;28;20329;-60
2022/12/03 10:05:09;;;;;;;0.10;0.10;;;;;;;1.22;100.00;98652.16;4938198;28;20315;-60
2022/12/03 10:07:36;;;;;;;0.00;0.00;;;;;;;1.05;100.00;98641.13;4929774;28;21033;-60
2022/12/03 10:10:03;;;;;;;0.00;0.00;;;;;;;1.14;100.00;98647.47;4935170;28;20233;-61
2022/12/03 10:12:30;;;;;;;0.00;0.00;;;;;;;1.29;100.00;98643.97;4925852;28;20270;-61
2022/12/03 10:14:56;;;;;;;0.00;0.00;;;;;;;1.17;100.00;98642.13;4927750;28;20230;-60
2022/12/03 10:17:23;;;;;;;0.00;0.00;;;;;;;1.29;100.00;98645.75;4925844;28;20231;-60
2022/12/03 10:19:51;;;;;;;0.07;0.07;;;;;;;1.50;100.00;98646.19;4926160;28;20715;-60
2022/12/03 10:22:17;;;;;;;0.00;0.00;;;;;;;1.64;100.00;98642.78;4928125;28;20243;-61
2022/12/03 10:24:44;;;;;;;0.00;0.00;;;;;;;1.35;100.00;98636.81;4926532;28;20239;-60
2022/12/03 10:27:29;;;;;;;0.00;0.00;;;;;;;1.34;100.00;98633.44;4932522;28;20254;-60
2022/12/03 10:29:59;;;;;;;0.00;0.00;;;;;;;1.29;100.00;98636.25;4932937;28;20570;-60
2022/12/03 10:32:38;;;;;;;0.10;0.10;;;;;;;1.00;100.00;98626.00;4932719;28;20239;-61
2022/12/03 10:35:13;;;;;;;0.00;0.00;;;;;;;1.15;100.00;98615.69;4927235;28;20241;-60
2022/12/03 10:37:56;;;;;;;0.00;0.00;;;;;;;1.18;100.00;98612.94;4932469;28;20237;-61
2022/12/03 10:40:25;;;;;;;0.07;0.07;;;;;;;1.51;100.00;98614.41;4924622;28;20737;-61
2022/12/03 10:43:11;;;;;;;0.07;0.07;;;;;;;1.39;100.00;98603.13;4930262;28;20671;-59
2022/12/03 10:45:38;;;;;;;0.00;0.00;;;;;;;1.57;100.00;98601.16;4929189;28;20238;-61
2022/12/03 10:48:10;;;;;;;0.00;0.00;;;;;;;1.50;100.00;98599.06;4929566;28;20557;-60
2022/12/03 10:50:47;;;;;;;0.00;0.00;;;;;;;1.15;100.00;98601.09;4925925;28;20242;-61
2022/12/03 10:53:13;;;;;;;0.00;0.00;;;;;;;1.26;100.00;98591.91;4929256;28;20234;-61
2022/12/03 10:55:42;;;;;;;0.00;0.00;;;;;;;1.59;100.00;98588.22;4926579;28;20250;-61
2022/12/03 10:58:18;;;;;;;0.00;0.00;;;;;;;1.72;100.00;98589.09;4931771;28;20285;-61
2022/12/03 11:00:45;;;;;;;0.00;0.00;;;;;;;1.68;100.00;98599.69;4928203;28;20233;-61
2022/12/03 11:03:18;;;;;;;0.00;0.00;;;;;;;1.94;100.00;98589.50;4929931;28;20235;-59
2022/12/03 11:05:46;;;;;;;0.07;0.07;;;;;;;1.95;100.00;98589.41;4925540;28;20249;-60
2022/12/03 11:08:18;;;;;;;0.00;0.00;;;;;;;2.11;100.00;98589.28;4929169;28;20237;-60
2022/12/03 11:10:45;;;;;;;0.00;0.00;;;;;;;1.85;100.00;98586.59;4927424;28;20227;-60
2022/12/03 11:13:44;;;;;;;0.00;0.00;;;;;;;1.96;100.00;98585.91;4928704;28;20243;-59
2022/12/03 11:16:11;;;;;;;0.00;0.00;;;;;;;2.09;100.00;98578.25;4924416;28;20242;-60
2022/12/03 11:18:58;;;;;;;0.00;0.00;;;;;;;1.89;100.00;98575.19;4924401;28;20228;-59
2022/12/03 11:21:25;;;;;;;0.00;0.00;;;;;;;2.00;100.00;98571.09;4920795;28;20263;-59
2022/12/03 11:24:27;;;;;;;0.00;0.00;;;;;;;2.29;100.00;98570.94;4925289;28;20332;-59
2022/12/03 11:27:19;;;;;;;0.00;0.00;;;;;;;2.43;100.00;98564.91;4929390;28;20257;-60
2022/12/03 11:29:52;;;;;;;0.00;0.00;;;;;;;2.68;100.00;98558.97;4923031;28;20722;-59
2022/12/03 11:33:07;;;;;;;0.00;0.00;;;;;;;2.98;100.00;98550.09;4928185;28;20247;-59
2022/12/03 11:36:06;;;;;;;0.00;0.00;;;;;;;3.28;100.00;98548.09;4926068;28;20228;-62
2022/12/03 11:38:59;;;;;;;0.10;0.10;;;;;;;3.37;100.00;98547.47;4927266;28;20230;-60
2022/12/03 11:41:29;;;;;;;0.00;0.00;;;;;;;3.35;100.00;98539.00;4924006;28;20238;-60
2022/12/03 11:44:01;;;;;;;0.10;0.10;;;;;;;3.54;100.00;98541.94;4924621;28;20691;-59
2022/12/03 11:46:30;;;;;;;0.00;0.00;;;;;;;3.46;100.00;98539.06;4919069;28;20235;-59
2022/12/03 11:49:00;;;;;;;0.00;0.00;;;;;;;3.61;100.00;98533.78;4924587;28;20480;-60
2022/12/03 11:51:28;;;;;;;0.00;0.00;;;;;;;3.62;100.00;98532.84;4931122;28;20246;-61
2022/12/03 11:53:59;;;;;;;0.10;0.10;;;;;;;3.53;100.00;98526.56;4930212;28;20241;-60
2022/12/03 11:56:28;;;;;;;0.00;0.00;;;;;;;3.59;100.00;98527.88;4917893;28;20865;-59